createdAt,value
2022-12-31T00:01:10.177Z,80.14
2022-12-31T00:03:37.102Z,80.25
2022-12-31T00:06:26.174Z,80.16
2022-12-31T00:08:55.498Z,79.41
2022-12-31T00:11:23.437Z,79.80
2022-12-31T00:13:50.519Z,79.15
2022-12-31T00:16:22.701Z,78.13
2022-12-31T00:18:53.492Z,78.33
2022-12-31T00:21:21.579Z,78.06
2022-12-31T00:23:48.633Z,77.09
2022-12-31T00:26:18.074Z,77.42
2022-12-31T00:28:45.499Z,77.27
2022-12-31T00:31:18.860Z,77.35
2022-12-31T00:33:46.150Z,77.43
2022-12-31T00:36:15.354Z,77.60
2022-12-31T00:38:44.264Z,77.67
2022-12-31T00:41:11.552Z,77.79
2022-12-31T00:43:38.213Z,77.44
2022-12-31T00:46:06.125Z,77.72
2022-12-31T00:48:33.480Z,76.51
2022-12-31T00:51:00.908Z,77.14
2022-12-31T00:53:28.546Z,76.55
2022-12-31T00:56:06.224Z,76.42
2022-12-31T00:58:33.487Z,76.03
2022-12-31T01:01:08.993Z,76.21
2022-12-31T01:03:35.642Z,75.16
2022-12-31T01:06:02.251Z,74.99
2022-12-31T01:08:28.657Z,74.50
2022-12-31T01:11:13.437Z,74.06
2022-12-31T01:13:39.911Z,73.59
2022-12-31T01:16:11.308Z,74.14
2022-12-31T01:18:38.392Z,73.35
2022-12-31T01:21:07.504Z,72.97
2022-12-31T01:23:34.070Z,73.51
2022-12-31T01:26:02.094Z,73.58
2022-12-31T01:28:29.796Z,73.65
2022-12-31T01:30:57.302Z,73.96
2022-12-31T01:33:23.965Z,74.44
2022-12-31T01:35:51.859Z,74.80
2022-12-31T01:38:18.268Z,74.84
2022-12-31T01:40:44.758Z,75.35
2022-12-31T01:43:19.727Z,75.22
2022-12-31T01:45:49.364Z,75.72
2022-12-31T01:48:22.201Z,75.22
2022-12-31T01:50:49.757Z,75.55
2022-12-31T01:53:18.130Z,75.58
2022-12-31T01:55:57.925Z,75.71
2022-12-31T01:58:28.930Z,75.90
2022-12-31T02:00:58.530Z,75.72
2022-12-31T02:03:27.239Z,75.21
2022-12-31T02:06:03.307Z,75.73
2022-12-31T02:08:30.091Z,75.58
2022-12-31T02:10:56.613Z,75.25
2022-12-31T02:13:23.228Z,75.44
2022-12-31T02:16:10.301Z,75.88
2022-12-31T02:18:57.267Z,75.71
2022-12-31T02:21:58.017Z,75.74
2022-12-31T02:24:57.402Z,75.81
2022-12-31T02:27:39.029Z,75.46
2022-12-31T02:30:16.836Z,75.90
2022-12-31T02:33:03.024Z,75.82
2022-12-31T02:35:50.773Z,76.01
2022-12-31T02:38:44.678Z,76.52
2022-12-31T02:41:35.705Z,77.12
2022-12-31T02:44:20.208Z,77.89
2022-12-31T02:46:57.055Z,78.52
2022-12-31T02:49:47.193Z,78.57
2022-12-31T02:52:51.224Z,78.38
2022-12-31T02:55:35.644Z,78.05
2022-12-31T03:01:55.842Z,78.32
2022-12-31T03:04:32.761Z,77.91
2022-12-31T03:07:07.861Z,77.88
2022-12-31T03:09:35.701Z,78.46
2022-12-31T03:12:22.983Z,78.54
2022-12-31T03:14:49.746Z,78.67
2022-12-31T03:17:16.224Z,78.75
2022-12-31T03:20:01.332Z,79.10
2022-12-31T03:22:28.196Z,78.97
2022-12-31T03:25:28.325Z,78.82
2022-12-31T03:27:55.746Z,78.30
2022-12-31T03:30:23.649Z,78.72
2022-12-31T03:32:50.673Z,78.56
2022-12-31T03:35:20.253Z,78.04
2022-12-31T03:37:48.209Z,78.14
2022-12-31T03:40:15.728Z,77.83
2022-12-31T03:42:42.414Z,77.42
2022-12-31T03:45:10.137Z,77.18
2022-12-31T03:47:36.648Z,76.83
2022-12-31T03:50:05.327Z,77.04
2022-12-31T03:52:31.761Z,76.97
2022-12-31T03:54:58.346Z,76.38
2022-12-31T03:57:25.229Z,75.95
2022-12-31T03:59:51.684Z,76.10
2022-12-31T04:02:23.290Z,76.18
2022-12-31T04:04:54.672Z,76.10
2022-12-31T04:07:21.135Z,76.03
2022-12-31T04:09:47.574Z,76.07
2022-12-31T04:12:14.013Z,75.70
2022-12-31T04:14:40.708Z,75.82
2022-12-31T04:17:07.342Z,75.28
2022-12-31T04:19:33.785Z,75.17
2022-12-31T04:22:00.203Z,74.77
2022-12-31T04:24:26.676Z,74.47
2022-12-31T04:26:53.176Z,74.62
2022-12-31T04:29:19.699Z,74.39
2022-12-31T04:31:46.166Z,74.49
2022-12-31T04:34:12.661Z,74.54
2022-12-31T04:36:39.125Z,74.42
2022-12-31T04:39:05.599Z,74.18
2022-12-31T04:41:32.057Z,73.78
2022-12-31T04:43:59.353Z,73.23
2022-12-31T04:46:31.510Z,73.65
2022-12-31T04:48:58.669Z,73.38
2022-12-31T04:51:27.315Z,73.75
2022-12-31T04:53:54.621Z,73.86
2022-12-31T04:56:21.679Z,73.82
2022-12-31T04:58:48.174Z,73.81
2022-12-31T05:01:15.455Z,73.77
2022-12-31T05:03:42.130Z,73.35
2022-12-31T05:06:13.523Z,73.43
2022-12-31T05:08:40.144Z,73.29
2022-12-31T05:11:06.601Z,73.33
2022-12-31T05:13:33.863Z,73.24
2022-12-31T05:16:01.806Z,73.16
2022-12-31T05:18:28.872Z,73.20
2022-12-31T05:20:55.420Z,73.32
2022-12-31T05:23:23.775Z,73.39
2022-12-31T05:25:50.879Z,73.25
2022-12-31T05:28:17.788Z,73.20
2022-12-31T05:30:47.810Z,73.48
2022-12-31T05:33:14.274Z,73.41
2022-12-31T05:35:40.769Z,73.14
2022-12-31T05:38:07.364Z,73.07
2022-12-31T05:40:33.824Z,72.88
2022-12-31T05:43:00.245Z,72.96
2022-12-31T05:45:30.712Z,73.21
2022-12-31T05:47:58.057Z,72.59
2022-12-31T05:50:24.873Z,72.80
2022-12-31T05:52:55.450Z,72.79
2022-12-31T05:55:22.004Z,72.48
2022-12-31T05:57:48.493Z,72.52
2022-12-31T06:00:15.400Z,72.75
2022-12-31T06:02:42.032Z,72.42
2022-12-31T06:05:09.169Z,72.31
2022-12-31T06:07:35.633Z,72.08
2022-12-31T06:10:04.753Z,72.42
2022-12-31T06:12:31.327Z,72.13
2022-12-31T06:14:57.762Z,71.97
2022-12-31T06:17:24.567Z,71.76
2022-12-31T06:19:50.995Z,71.83
2022-12-31T06:22:17.510Z,71.75
2022-12-31T06:24:44.003Z,71.42
2022-12-31T06:27:10.464Z,71.19
2022-12-31T06:29:36.999Z,70.60
2022-12-31T06:32:03.849Z,71.03
2022-12-31T06:34:30.544Z,70.79
2022-12-31T06:36:57.449Z,70.92
2022-12-31T06:39:23.872Z,70.90
2022-12-31T06:41:50.316Z,70.60
2022-12-31T06:44:16.744Z,70.69
2022-12-31T06:46:43.254Z,70.73
2022-12-31T06:49:09.814Z,70.49
2022-12-31T06:51:36.263Z,70.38
2022-12-31T06:54:02.734Z,70.25
2022-12-31T06:56:34.509Z,70.61
2022-12-31T06:59:02.138Z,70.35
2022-12-31T07:01:37.641Z,70.35
2022-12-31T07:04:25.853Z,70.32
2022-12-31T07:06:54.601Z,70.32
2022-12-31T07:09:40.372Z,69.99
2022-12-31T07:12:20.505Z,70.07
2022-12-31T07:14:58.448Z,70.10
2022-12-31T07:17:57.502Z,69.90
2022-12-31T07:20:24.349Z,69.85
2022-12-31T07:22:51.003Z,69.88
2022-12-31T07:25:18.973Z,70.08
2022-12-31T07:28:03.610Z,70.25
2022-12-31T07:31:00.224Z,69.78
2022-12-31T07:33:46.337Z,69.71
2022-12-31T07:36:36.562Z,69.39
2022-12-31T07:39:11.154Z,69.18
2022-12-31T07:41:50.495Z,69.28
2022-12-31T07:44:39.052Z,69.05
2022-12-31T07:47:24.186Z,68.84
2022-12-31T07:49:51.175Z,68.38
2022-12-31T07:52:18.249Z,68.26
2022-12-31T07:54:44.817Z,67.83
2022-12-31T07:57:16.690Z,67.88
2022-12-31T07:59:55.700Z,67.78
2022-12-31T08:02:33.093Z,67.05
2022-12-31T08:05:15.210Z,67.24
2022-12-31T08:07:55.050Z,66.80
2022-12-31T08:10:36.004Z,66.74
2022-12-31T08:13:07.654Z,66.20
2022-12-31T08:15:34.597Z,66.01
2022-12-31T08:18:01.237Z,66.12
2022-12-31T08:20:31.192Z,66.18
2022-12-31T08:23:08.815Z,65.54
2022-12-31T08:25:59.961Z,66.27
2022-12-31T08:28:35.564Z,65.64
2022-12-31T08:31:09.037Z,65.57
2022-12-31T08:34:05.359Z,65.07
2022-12-31T08:36:52.134Z,64.78
2022-12-31T08:39:45.324Z,64.69
2022-12-31T08:42:25.433Z,64.45
2022-12-31T08:45:10.780Z,64.52
2022-12-31T08:48:00.356Z,64.43
2022-12-31T08:50:27.959Z,64.32
2022-12-31T08:52:54.834Z,64.00
2022-12-31T08:55:21.991Z,63.99
2022-12-31T08:58:08.268Z,64.03
2022-12-31T09:00:36.399Z,64.13
2022-12-31T09:03:11.671Z,63.43
2022-12-31T09:05:54.930Z,63.51
2022-12-31T09:08:45.974Z,63.54
2022-12-31T09:11:22.798Z,63.24
2022-12-31T09:14:27.165Z,63.36
2022-12-31T09:17:12.410Z,62.29
2022-12-31T09:19:38.885Z,62.80
2022-12-31T09:22:05.500Z,62.45
2022-12-31T09:24:32.288Z,62.05
2022-12-31T09:27:30.152Z,61.98
2022-12-31T09:30:10.688Z,61.67
2022-12-31T09:33:01.394Z,61.48
2022-12-31T09:35:41.617Z,61.59
2022-12-31T09:38:23.827Z,61.41
2022-12-31T09:41:14.433Z,61.28
2022-12-31T09:44:12.940Z,61.07
2022-12-31T09:47:11.119Z,60.73
2022-12-31T09:49:43.339Z,60.24
2022-12-31T09:52:30.483Z,60.53
2022-12-31T09:55:12.240Z,60.01
2022-12-31T09:58:02.147Z,59.61
2022-12-31T10:00:39.028Z,60.07
2022-12-31T10:03:36.401Z,59.87
2022-12-31T10:06:24.357Z,59.25
2022-12-31T10:09:29.940Z,58.78
2022-12-31T10:12:06.370Z,58.62
2022-12-31T10:15:01.310Z,59.02
2022-12-31T10:17:52.763Z,58.38
2022-12-31T10:20:56.922Z,58.30
2022-12-31T10:23:43.864Z,57.84
2022-12-31T10:26:52.919Z,57.69
2022-12-31T10:29:47.044Z,57.67
2022-12-31T10:32:16.209Z,56.51
2022-12-31T10:35:15.102Z,56.75
2022-12-31T10:37:53.610Z,56.14
2022-12-31T10:40:29.590Z,55.91
2022-12-31T10:43:33.594Z,55.17
2022-12-31T10:46:32.376Z,55.35
2022-12-31T10:49:22.083Z,55.76
2022-12-31T10:52:24.914Z,54.11
2022-12-31T10:55:24.820Z,53.96
2022-12-31T10:58:06.567Z,53.91
2022-12-31T11:00:56.592Z,53.93
2022-12-31T11:03:41.788Z,53.64
2022-12-31T11:06:29.674Z,54.06
2022-12-31T11:09:23.265Z,53.88
2022-12-31T11:12:15.963Z,53.35
2022-12-31T11:14:48.039Z,52.92
2022-12-31T11:17:40.710Z,51.78
2022-12-31T11:20:23.685Z,52.20
2022-12-31T11:23:10.327Z,52.19
2022-12-31T11:25:59.616Z,51.34
2022-12-31T11:28:52.475Z,52.10
2022-12-31T11:31:43.237Z,51.85
2022-12-31T11:34:25.001Z,50.62
2022-12-31T11:37:05.635Z,51.34
2022-12-31T11:42:57.339Z,50.89
2022-12-31T11:45:56.216Z,51.29
2022-12-31T11:48:32.552Z,50.15
2022-12-31T11:51:21.413Z,50.96
2022-12-31T11:54:25.095Z,49.39
2022-12-31T11:57:08.219Z,49.40
2022-12-31T11:59:34.717Z,48.87
2022-12-31T12:02:12.409Z,49.32
2022-12-31T12:04:38.864Z,49.44
2022-12-31T12:07:13.473Z,48.92
2022-12-31T12:09:41.310Z,49.12
2022-12-31T12:12:07.908Z,49.25
2022-12-31T12:14:37.811Z,49.49
2022-12-31T12:17:09.189Z,48.92
2022-12-31T12:19:41.604Z,49.09
2022-12-31T12:22:12.548Z,49.25
2022-12-31T12:24:39.271Z,49.36
2022-12-31T12:27:21.439Z,48.34
2022-12-31T12:29:48.690Z,48.78
2022-12-31T12:32:18.049Z,49.26
2022-12-31T12:34:49.570Z,48.96
2022-12-31T12:37:32.227Z,48.38
2022-12-31T12:40:05.208Z,48.44
2022-12-31T12:42:32.260Z,47.58
2022-12-31T12:45:14.582Z,47.99
2022-12-31T12:47:43.014Z,48.00
2022-12-31T12:50:19.002Z,48.00
2022-12-31T12:53:08.596Z,48.15
2022-12-31T12:55:46.771Z,47.38
2022-12-31T12:58:18.822Z,47.43
2022-12-31T13:01:18.283Z,48.24
2022-12-31T13:04:32.340Z,47.94
2022-12-31T13:07:14.211Z,46.92
2022-12-31T13:10:08.314Z,47.35
2022-12-31T13:13:22.795Z,47.55
2022-12-31T13:15:47.395Z,47.59
2022-12-31T13:18:32.742Z,47.29
2022-12-31T13:21:39.587Z,47.01
2022-12-31T13:24:36.223Z,47.04
2022-12-31T13:27:26.837Z,47.22
2022-12-31T13:29:56.416Z,47.43
2022-12-31T13:32:37.841Z,47.35
2022-12-31T13:35:21.525Z,47.35
2022-12-31T13:37:48.496Z,52.07
2022-12-31T13:40:45.157Z,53.81
2022-12-31T13:43:36.627Z,55.41
2022-12-31T13:46:13.956Z,56.17
2022-12-31T13:48:48.589Z,56.98
2022-12-31T13:51:47.108Z,57.41
2022-12-31T13:54:21.447Z,58.04
2022-12-31T13:56:50.592Z,58.53
2022-12-31T13:59:31.682Z,59.13
2022-12-31T14:02:08.694Z,60.00
2022-12-31T14:04:45.009Z,60.16
2022-12-31T14:07:19.032Z,60.74
2022-12-31T14:09:46.685Z,61.28
2022-12-31T14:12:31.343Z,60.38
2022-12-31T14:15:24.321Z,61.33
2022-12-31T14:17:57.243Z,61.92
2022-12-31T14:20:53.537Z,62.52
2022-12-31T14:23:34.174Z,62.38
2022-12-31T14:26:22.629Z,62.19
2022-12-31T14:29:12.075Z,59.48
2022-12-31T14:31:53.765Z,61.12
2022-12-31T14:34:26.311Z,62.20
2022-12-31T14:36:58.955Z,61.88
2022-12-31T14:39:43.899Z,62.14
2022-12-31T14:42:38.957Z,63.28
2022-12-31T14:45:14.374Z,63.37
2022-12-31T14:47:59.908Z,63.61
2022-12-31T14:50:29.532Z,63.92
2022-12-31T14:53:08.499Z,64.95
2022-12-31T14:55:37.677Z,65.65
2022-12-31T14:58:29.288Z,65.85
2022-12-31T15:01:02.095Z,66.04
2022-12-31T15:03:31.509Z,66.31
2022-12-31T15:06:23.103Z,66.34
2022-12-31T15:09:08.788Z,66.64
2022-12-31T15:11:41.554Z,67.29
2022-12-31T15:14:47.309Z,67.65
2022-12-31T15:17:48.883Z,67.45
2022-12-31T15:20:38.664Z,67.79
2022-12-31T15:23:33.363Z,67.69
2022-12-31T15:26:01.754Z,67.72
2022-12-31T15:28:34.409Z,68.24
2022-12-31T15:31:20.867Z,68.35
2022-12-31T15:34:02.602Z,68.81
2022-12-31T15:36:32.345Z,68.81
2022-12-31T15:39:11.166Z,69.15
2022-12-31T15:41:42.898Z,69.31
2022-12-31T15:44:25.992Z,69.33
2022-12-31T15:47:24.397Z,70.36
2022-12-31T15:49:53.696Z,71.22
2022-12-31T15:52:26.275Z,71.23
2022-12-31T15:54:56.273Z,71.38
2022-12-31T15:57:41.497Z,71.05
2022-12-31T16:00:17.064Z,71.27
2022-12-31T16:02:45.264Z,71.25
2022-12-31T16:05:24.408Z,71.30
2022-12-31T16:07:59.405Z,71.38
2022-12-31T16:10:32.123Z,71.62
2022-12-31T16:12:59.768Z,72.06
2022-12-31T16:15:31.528Z,72.11
2022-12-31T16:18:04.628Z,72.37
2022-12-31T16:20:33.940Z,72.55
2022-12-31T16:23:03.104Z,72.49
2022-12-31T16:25:32.870Z,72.31
2022-12-31T16:28:02.490Z,72.44
2022-12-31T16:30:31.129Z,72.11
2022-12-31T16:33:03.706Z,72.32
2022-12-31T16:35:36.371Z,72.73
2022-12-31T16:38:19.549Z,72.63
2022-12-31T16:41:01.180Z,72.68
2022-12-31T16:43:29.009Z,73.13
2022-12-31T16:46:10.129Z,73.62
2022-12-31T16:48:37.586Z,73.73
2022-12-31T16:51:05.176Z,73.72
2022-12-31T16:53:36.421Z,74.55
2022-12-31T16:56:09.004Z,74.62
2022-12-31T16:58:40.767Z,74.42
2022-12-31T17:01:27.380Z,74.71
2022-12-31T17:04:00.140Z,74.91
2022-12-31T17:06:28.418Z,74.71
2022-12-31T17:09:00.884Z,75.08
2022-12-31T17:11:34.325Z,75.33
2022-12-31T17:14:07.493Z,75.38
2022-12-31T17:17:01.666Z,74.69
2022-12-31T17:19:35.162Z,74.11
2022-12-31T17:22:04.277Z,73.72
2022-12-31T17:24:31.549Z,74.02
2022-12-31T17:27:05.304Z,74.30
2022-12-31T17:29:32.359Z,74.64
2022-12-31T17:32:08.001Z,74.62
2022-12-31T17:34:47.277Z,74.08
2022-12-31T17:37:18.694Z,74.29
2022-12-31T17:39:53.517Z,75.22
2022-12-31T17:42:36.337Z,75.26
2022-12-31T17:45:08.103Z,75.32
2022-12-31T17:47:40.392Z,75.63
2022-12-31T17:50:19.086Z,75.83
2022-12-31T17:52:46.305Z,76.34
2022-12-31T17:55:12.848Z,77.13
2022-12-31T17:57:47.346Z,77.57
2022-12-31T18:00:23.244Z,77.52
2022-12-31T18:02:49.857Z,77.63
2022-12-31T18:05:22.302Z,77.23
2022-12-31T18:07:48.843Z,77.29
2022-12-31T18:10:17.083Z,77.16
2022-12-31T18:12:44.836Z,76.83
2022-12-31T18:15:24.765Z,77.17
2022-12-31T18:17:51.576Z,77.03
2022-12-31T18:20:18.603Z,77.11
2022-12-31T18:22:45.712Z,77.07
2022-12-31T18:25:24.336Z,76.84
2022-12-31T18:27:52.456Z,77.14
2022-12-31T18:30:18.998Z,77.21
2022-12-31T18:32:46.534Z,77.60
2022-12-31T18:35:58.106Z,77.45
2022-12-31T18:38:11.737Z,77.35
2022-12-31T18:40:42.621Z,77.30
2022-12-31T18:43:15.968Z,76.96
2022-12-31T18:45:42.682Z,76.44
2022-12-31T18:48:09.347Z,76.82
2022-12-31T18:50:36.148Z,77.16
2022-12-31T18:53:02.733Z,77.35
2022-12-31T18:55:45.843Z,76.40
2022-12-31T18:58:12.389Z,76.34
2022-12-31T19:00:39.435Z,75.89
2022-12-31T19:03:06.093Z,75.62
2022-12-31T19:05:34.634Z,76.17
2022-12-31T19:08:01.413Z,75.48
2022-12-31T19:10:28.246Z,75.65
2022-12-31T19:12:54.920Z,75.06
2022-12-31T19:15:26.529Z,75.92
2022-12-31T19:17:53.157Z,76.15
2022-12-31T19:20:19.701Z,75.71
2022-12-31T19:22:46.336Z,75.77
2022-12-31T19:25:27.737Z,76.03
2022-12-31T19:27:54.679Z,76.04
2022-12-31T19:30:27.057Z,76.16
2022-12-31T19:32:53.870Z,76.30
2022-12-31T19:35:21.368Z,75.32
2022-12-31T19:37:49.824Z,75.99
2022-12-31T19:40:19.444Z,75.92
2022-12-31T19:42:46.181Z,76.56
2022-12-31T19:45:15.094Z,76.92
2022-12-31T19:47:42.144Z,76.75
2022-12-31T19:50:12.744Z,77.26
2022-12-31T19:52:39.486Z,77.93
2022-12-31T19:55:06.347Z,77.37
2022-12-31T19:57:32.931Z,77.38
2022-12-31T19:59:59.410Z,78.14
2022-12-31T20:02:26.138Z,77.27
2022-12-31T20:04:52.704Z,75.77
2022-12-31T20:07:25.276Z,74.07
2022-12-31T20:09:53.558Z,72.57
2022-12-31T20:12:20.040Z,69.97
2022-12-31T20:14:46.536Z,67.39
2022-12-31T20:17:13.161Z,65.44
2022-12-31T20:19:39.693Z,63.97
2022-12-31T20:22:06.614Z,63.76
2022-12-31T20:24:33.512Z,65.16
2022-12-31T20:27:00.106Z,65.97
2022-12-31T20:29:30.156Z,67.17
2022-12-31T20:31:57.216Z,68.21
2022-12-31T20:34:24.065Z,69.11
2022-12-31T20:36:50.484Z,70.06
2022-12-31T20:39:16.941Z,70.89
2022-12-31T20:41:43.509Z,71.92
2022-12-31T20:44:10.132Z,71.84
2022-12-31T20:46:37.023Z,72.29
2022-12-31T20:49:05.176Z,73.01
2022-12-31T20:51:34.007Z,73.63
2022-12-31T20:54:04.160Z,73.90
2022-12-31T20:56:32.754Z,74.32
2022-12-31T20:59:00.638Z,75.27
2022-12-31T21:01:41.704Z,75.91
2022-12-31T21:04:14.131Z,76.78
2022-12-31T21:06:40.761Z,76.96
2022-12-31T21:09:08.425Z,77.47
2022-12-31T21:11:53.649Z,77.92
2022-12-31T21:14:20.393Z,78.02
2022-12-31T21:16:47.108Z,77.91
2022-12-31T21:19:13.675Z,78.09
2022-12-31T21:21:40.152Z,78.37
2022-12-31T21:24:06.845Z,78.54
2022-12-31T21:26:34.335Z,78.72
2022-12-31T21:29:00.796Z,78.38
2022-12-31T21:31:27.571Z,78.00
2022-12-31T21:33:54.183Z,77.54
2022-12-31T21:36:20.676Z,77.95
2022-12-31T21:38:47.225Z,77.78
2022-12-31T21:41:35.063Z,77.33
2022-12-31T21:44:01.998Z,77.13
2022-12-31T21:46:28.919Z,76.87
2022-12-31T21:49:00.019Z,76.95
2022-12-31T21:51:27.550Z,76.99
2022-12-31T21:53:54.018Z,77.08
2022-12-31T21:56:21.516Z,76.95
2022-12-31T21:59:12.339Z,76.57
2022-12-31T22:01:57.340Z,77.18
2022-12-31T22:05:00.346Z,76.66
2022-12-31T22:07:10.291Z,77.80
2022-12-31T22:09:36.706Z,77.16
2022-12-31T22:12:03.296Z,77.28
2022-12-31T22:14:29.767Z,78.17
2022-12-31T22:16:56.210Z,76.49
2022-12-31T22:19:22.761Z,76.83
2022-12-31T22:21:49.221Z,77.02
2022-12-31T22:24:15.700Z,76.58
2022-12-31T22:26:46.533Z,76.81
2022-12-31T22:29:13.351Z,76.23
2022-12-31T22:31:39.868Z,76.05
2022-12-31T22:34:06.371Z,74.40
2022-12-31T22:36:32.916Z,73.21
2022-12-31T22:38:59.691Z,73.30
2022-12-31T22:41:27.215Z,72.64
2022-12-31T22:44:02.588Z,72.21
2022-12-31T22:46:30.602Z,71.65
2022-12-31T22:48:58.917Z,71.58
2022-12-31T22:51:29.182Z,71.61
2022-12-31T22:54:12.428Z,71.42
2022-12-31T22:56:38.944Z,70.82
2022-12-31T22:59:05.634Z,70.38
2022-12-31T23:01:32.146Z,70.25
2022-12-31T23:03:58.756Z,70.02
2022-12-31T23:06:25.309Z,70.87
2022-12-31T23:09:10.908Z,70.43
2022-12-31T23:11:39.137Z,70.60
2022-12-31T23:14:26.184Z,70.15
2022-12-31T23:17:31.365Z,69.75
2022-12-31T23:20:15.977Z,69.45
2022-12-31T23:23:00.890Z,69.62
2022-12-31T23:25:27.337Z,69.82
2022-12-31T23:27:53.810Z,69.20
2022-12-31T23:30:20.215Z,68.82
2022-12-31T23:32:46.658Z,68.77
2022-12-31T23:35:13.888Z,68.25
2022-12-31T23:37:40.333Z,68.52
2022-12-31T23:40:07.492Z,68.80
2022-12-31T23:42:33.978Z,68.37
2022-12-31T23:45:00.404Z,67.82
2022-12-31T23:47:26.860Z,67.67
2022-12-31T23:49:53.267Z,67.66
2022-12-31T23:52:20.236Z,67.79
2022-12-31T23:54:46.727Z,67.58
2022-12-31T23:57:13.214Z,67.49
2022-12-31T23:59:39.607Z,67.43
